Airfield :
LOGIN :

Register | Disclaimer

   EN    FR    IT 

 










Legend :    VFR   Marginal VFR   IFR   Intensive IFR   Very Intensive IFR
Visi :
Ceiling :
>= 8 km
>= 3000ft
5 to 8 km
1000 to 3000 ft
1500m to 5 km
500 to 1000 ft
800 to 1500m
200 to 500 ft
< 800m
< 200 ft
Symbols :   Thunderstorms  Fog  Heavy snow  Heavy precipitations  Wind > 20 kt
SIGMETs :     Misc.  Thunderstorms  Icing  Turbulence  Mountain Waves  Volcanic Ashes






- Airport Elevation : 915 ft
- IATA code : LUG


LSZA - Lugano

CURRENT METAR :
  • 281950Z AUTO 19007KT 9999 FEW110 SCT120 //////TCU 21/14 Q1008

EXPIRED METARs :
  • 281920Z AUTO 21005KT 170V230 9999 FEW110 BKN120 //////TCU 21/14 Q1007
  • 281850Z AUTO 22006KT 170V260 9999 FEW100 SCT110 SCT///CB 22/14 Q1007
  • 281820Z AUTO 20010KT 9999 SCT100 SCT110 //////TCU 22/14 Q1006
  • 281750Z AUTO 20014KT 170V240 9999 SCT100 //////TCU 23/14 Q1006
  • 281720Z AUTO 29008KT 240V360 9999 FEW100 //////TCU 26/11 Q1005

TAF TAF LSZA
Valid from the 28 at 15:00 until the 29 at 00:00 UTC


281425Z 2815/2824 02011KT CAVOK
TEMPO 2815/2817 36016G28KT
BECMG 2816/2819 18004KT 9999 SCT050
TEMPO 2817/2824 SHRA SCT040TCU
PROB40
TEMPO 2818/2824 4500 TSRA SCT040CB
ATIS : +41 22 417 40 88



MET'MAP, your aeronautical weather chart ! - Copyright ORBIFLY December 2007 - Disclaimer

ORBIFLY MET'MAP TEAM :

Programming & Development : Alexandra Zaïnal
Original concept : Baudouin d'Aumeries
Technical & hardware support : Manuel Goepfert
Assistance : Marc-Olivier Méhu

Contact : metmap@orbifly.com




SOURCES & CREDITS :

   NOAA